Cebollita Spring, Valles Caldera, New Mexico Weather observations

Data are for 10 minute period ending at time listed.
 Day   Time   Solar   Ave.   Ave.  Ave.  Vector  Max.   Baro.   Total    
  of    of     Rad.   Air    Rel.  Wind   Wind   Wind  Press.  Precip.   
Year   Day            Temp.  Hum.  Speed  Dir.   Gust                    
2015   (MST)  Kw/m2    F      %     mph   deg.    mph    mb.     in.     
-------------------------------------------------------------------------
  86   19:30   0.00   49.9    24    4.4   308     8.4   99999.0    0.00 
  86   19:40   0.00   48.8    26    3.1   296     6.6   99999.0    0.00 
  86   19:50   0.00   48.3    26    4.5   306     8.4   99999.0    0.00 
  86   20:00   0.00   48.3    26    3.2   328     6.6   99999.0    0.00 
  86   20:10   0.00   47.6    27    2.7   336     6.0   99999.0    0.00 
  86   20:20   0.00   46.9    27    2.9   352     7.8   99999.0    0.00 
  86   20:30   0.00   45.5    30    3.2    17     6.0   99999.0    0.00 
  86   20:40   0.00   44.8    29    3.0     9     6.0   99999.0    0.00 
  86   20:50   0.00   44.2    30    2.3     3     5.4   99999.0    0.00 
  86   21:00   0.00   43.0    32    3.7   321     7.2   99999.0    0.00 
  86   21:10   0.00   44.4    30    3.8   329    10.8   99999.0    0.00 
  86   21:20   0.00   44.9    29    3.1   316     7.8   99999.0    0.00 
  86   21:30   0.00   44.0    30    3.1   297     7.8   99999.0    0.00 
  86   21:40   0.00   44.1    28    3.8   306     8.4   99999.0    0.00 
  86   21:50   0.00   44.9    27    3.3   323     9.0   99999.0    0.00 
  86   22:00   0.00   44.9    27    2.4   304     4.8   99999.0    0.00 
  86   22:10   0.00   43.3    29    2.4   316     5.4   99999.0    0.00 
  86   22:20   0.00   42.2    31    1.2    16     2.4   99999.0    0.00 
  86   22:30   0.00   39.9    38    1.2    18     2.4   99999.0    0.00 
  86   22:40   0.00   38.6    44    1.8    33     4.2   99999.0    0.00 
  86   22:50   0.00   37.8    49    1.7    24     4.2   99999.0    0.00 
  86   23:00   0.00   36.6    53    2.2     7     5.4   99999.0    0.00 
  86   23:10   0.00   36.2    53    1.9   356     6.0   99999.0    0.00 
  86   23:20   0.00   37.4    50    2.0   351     5.4   99999.0    0.00 
  86   23:30   0.00   37.1    54    1.8    16     3.6   99999.0    0.00 
  86   23:40   0.00   36.2    57    1.8   359     6.0   99999.0    0.00 
  86   23:50   0.00   35.7    56    1.6   345     3.0   99999.0    0.00 
  87    0:00   0.00   35.3    58    1.6   349     3.0   99999.0    0.00 
  87    0:10   0.00   33.9    60    1.3   354     2.4   99999.0    0.00 
  87    0:20   0.00   32.4    63    1.1   348     2.4   99999.0    0.00 
  87    0:30   0.00   31.6    67    2.1   336     4.2   99999.0    0.00 
  87    0:40   0.00   31.5    65    1.5   353     3.0   99999.0    0.00 
  87    0:50   0.00   31.3    66    1.7   349     3.6   99999.0    0.00 
  87    1:00   0.00   31.2    66    1.7   358     3.6   99999.0    0.00 
  87    1:10   0.00   31.0    66    1.8     2     4.2   99999.0    0.00 
  87    1:20   0.00   31.8    64    1.7   355     3.6   99999.0    0.00 
  87    1:30   0.00   32.3    64    2.9   338     4.2   99999.0    0.00 
  87    1:40   0.00   33.0    63    3.3   336     5.4   99999.0    0.00 
  87    1:50   0.00   34.3    59    3.3   337     6.0   99999.0    0.00 
  87    2:00   0.00   35.0    59    4.4   334     7.8   99999.0    0.00 
  87    2:10   0.00   35.9    56    5.8   324    10.8   99999.0    0.00 
  87    2:20   0.00   37.1    53    5.7   320    13.1   99999.0    0.00 
  87    2:30   0.00   36.9    55    4.7   318     7.2   99999.0    0.00 
  87    2:40   0.00   34.7    59    4.5   315     7.2   99999.0    0.00 
  87    2:50   0.00   34.1    59    3.6   332     6.6   99999.0    0.00 
  87    3:00   0.00   33.2    60    4.9   344     9.6   99999.0    0.00 
  87    3:10   0.00   32.6    62    4.0   344     7.2   99999.0    0.00 
  87    3:20   0.00   32.4    63    2.6   353     6.0   99999.0    0.00 
  87    3:30   0.00   31.0    70    1.6   351     4.2   99999.0    0.00 
  87    3:40   0.00   30.2    70    2.2   344     3.6   99999.0    0.00 
  87    3:50   0.00   30.1    68    1.8   349     4.2   99999.0    0.00 
  87    4:00   0.00   29.5    71    2.2     4     4.2   99999.0    0.00 
  87    4:10   0.00   28.8    75    2.0   349     5.4   99999.0    0.00 
  87    4:20   0.00   28.9    72    2.6   352     4.8   99999.0    0.00 
  87    4:30   0.00   29.9    68    2.7     0     4.8   99999.0    0.00 
  87    4:40   0.00   31.5    62    3.2   357     5.4   99999.0    0.00 
  87    4:50   0.00   31.8    63    2.6   359     4.8   99999.0    0.00 
  87    5:00   0.00   30.7    66    1.7     4     4.2   99999.0    0.00 
  87    5:10   0.00   29.7    69    1.7   359     3.0   99999.0    0.00 
  87    5:20   0.00   28.7    72    1.5    17     3.0   99999.0    0.00 
  87    5:30   0.00   27.6    75    1.1    30     2.4   99999.0    0.00 
  87    5:40   0.00   26.9    77    0.9    32     1.8   99999.0    0.00 
  87    5:50   0.00   26.5    78    1.3    30     1.8   99999.0    0.00 
  87    6:00   0.00   26.6    78    1.0    19     1.8   99999.0    0.00 
  87    6:10   0.01   26.9    77    1.6     9     3.0   99999.0    0.00 
  87    6:20   0.01   27.1    78    1.1    25     3.6   99999.0    0.00 
  87    6:30   0.02   27.3    78    2.0    16     3.6   99999.0    0.00 
  87    6:40   0.07   28.4    76    2.0    14     3.6   99999.0    0.00 
  87    6:50   0.18   29.8    75    2.0     8     4.2   99999.0    0.00 
  87    7:00   0.23   32.2    69    2.1     3     4.2   99999.0    0.00 
  87    7:10   0.27   35.4    63    2.7   352     4.8   99999.0    0.00 
  87    7:20   0.31   40.2    50    3.9   344     6.6   99999.0    0.00 
  87    7:30   0.35   44.4    38    4.2   351     6.6   99999.0    0.00 
  87    7:40   0.40   47.3    34    3.2   357     6.0   99999.0    0.00 
  87    7:50   0.44   49.0    31    2.9   346     4.8   99999.0    0.00 
  87    8:00   0.49   50.1    30    3.0   355     5.4   99999.0    0.00 
  87    8:10   0.53   51.3    29    2.8   343     5.4   99999.0    0.00 
  87    8:20   0.57   52.5    27    3.9   347     7.2   99999.0    0.00 
  87    8:30   0.60   53.5    26    4.6   339     9.0   99999.0    0.00 
  87    8:40   0.64   55.1    26    4.4   291     9.0   99999.0    0.00 
  87    8:50   0.69   56.2    24    4.7   302     9.0   99999.0    0.00 
  87    9:00   0.72   56.8    22    5.2   335     8.4   99999.0    0.00 
  87    9:10   0.75   57.7    22    4.8   292    11.9   99999.0    0.00 
  87    9:20   0.78   57.9    19    4.7   252    11.9   99999.0    0.00 
  87    9:30   0.81   58.4    19    4.8   268    10.2   99999.0    0.00 
  87    9:40   0.84   59.1    17    6.5   276    13.7   99999.0    0.00 
  87    9:50   0.87   59.5    17    6.0   289    13.1   99999.0    0.00 
  87   10:00   0.89   60.3    16    7.4   289    14.9   99999.0    0.00 
  87   10:10   0.92   60.5    16    7.6   295    13.1   99999.0    0.00 
  87   10:20   0.94   60.2    17    9.2   273    15.5   99999.0    0.00 
  87   10:30   0.96   60.4    17    7.8   272    18.5   99999.0    0.00 
  87   10:40   0.98   60.9    17    7.6   282    16.7   99999.0    0.00 
  87   10:50   0.99   60.9    18    6.7   260    13.7   99999.0    0.00 
  87   11:00   1.00   61.4    18    5.6   306    11.9   99999.0    0.00 
  87   11:10   0.78   62.5    19    7.6   273    14.3   99999.0    0.00 
  87   11:20   1.02   62.2    19    8.2   264    14.3   99999.0    0.00 
  87   11:30   1.03   61.9    19    8.7   281    16.1   99999.0    0.00 
  87   11:40   1.03   62.1    19    6.6   328    13.7   99999.0    0.00 
  87   11:50   1.03   61.7    19    7.3   322    13.7   99999.0    0.00 
  87   12:00   1.04   62.9    20    7.0   302    14.3   99999.0    0.00 
  87   12:10   1.05   63.5    19    7.9   282    16.1   99999.0    0.00 
  87   12:20   1.05   62.3    18    6.8   270    16.7   99999.0    0.00 
  87   12:30   1.04   63.0    18    8.5   306    16.1   99999.0    0.00 
  87   12:40   0.97   63.1    18    8.2   296    16.1   99999.0    0.00 
  87   12:50   1.03   64.0    18    9.4   277    20.9   99999.0    0.00 
  87   13:00   1.02   63.7    18    7.7   271    16.7   99999.0    0.00 
  87   13:10   1.00   64.5    17    6.5   264    14.3   99999.0    0.00 
  87   13:20   0.95   64.7    16   10.8   278    21.5   99999.0    0.00 
  87   13:30   0.98   64.2    15   10.8   272    17.9   99999.0    0.00 
  87   13:40   0.96   64.3    16   10.1   274    17.3   99999.0    0.00 
  87   13:50   0.93   64.4    14   11.2   295    22.7   99999.0    0.00 
  87   14:00   0.91   64.3    15    8.9   305    17.9   99999.0    0.00 
  87   14:10   0.90   65.3    15    8.6   279    15.5   99999.0    0.00 
  87   14:20   0.88   65.3    14   10.9   291    25.0   99999.0    0.00 
  87   14:30   0.85   64.9    14   10.7   268    19.7   99999.0    0.01 
  87   14:40   0.82   64.9    14   10.7   282    19.7   99999.0    0.00 
  87   14:50   0.78   65.8    14    6.5   262    13.4   99999.0    0.00 
  87   15:00   0.76   66.3    13    9.2   275    16.1   99999.0    0.00 
  87   15:10   0.73   66.2    13    8.3   283    16.1   99999.0    0.00 
  87   15:20   0.69   65.4    13   12.0   259    20.9   99999.0    0.00 
  87   15:30   0.65   65.9    13    9.4   286    19.1   99999.0    0.00 
  87   15:40   0.61   65.4    13    9.1   282    16.7   99999.0    0.00 
  87   15:50   0.57   65.6    13    8.9   286    16.1   99999.0    0.00 
  87   16:00   0.53   65.4    13    9.5   262    16.7   99999.0    0.00 
  87   16:10   0.49   65.2    14    7.2   267    17.3   99999.0    0.00 
  87   16:20   0.45   65.2    13    8.4   279    14.3   99999.0    0.00 
  87   16:30   0.41   64.5    13    8.7   274    17.9   99999.0    0.00 
  87   16:40   0.37   65.0    14    6.2   283    17.3   99999.0    0.01 
  87   16:50   0.33   63.6    13   10.3   264    20.9   99999.0    0.00 
  87   17:00   0.29   62.7    13   10.6   271    20.3   99999.0    0.00 
  87   17:10   0.25   62.6    13    7.8   279    15.5   99999.0    0.00 
  87   17:20   0.21   62.3    14    8.4   269    14.9   99999.0    0.00 
  87   17:30   0.17   62.4    14    5.0   284    13.7   99999.0    0.00 
  87   17:40   0.14   61.8    14    6.2   293    15.5   99999.0    0.00 
  87   17:50   0.11   60.9    14    7.3   297    11.9   99999.0    0.00 
  87   18:00   0.08   59.1    16    6.2   293    12.5   99999.0    0.00 
  87   18:10   0.05   57.7    17    4.9   300    12.5   99999.0    0.00 
  87   18:20   0.02   56.7    18    4.8   294     9.0   99999.0    0.00 
  87   18:30   0.01   55.3    20    4.8   301     9.0   99999.0    0.00 
  87   18:40   0.00   54.2    21    3.9   306     9.6   99999.0    0.00 
  87   18:50   0.00   52.1    23    2.6   311     4.2   99999.0    0.00 
  87   19:00   0.00   49.4    25    3.1   330     6.6   99999.0    0.00 
  87   19:10   0.00   48.0    28    2.5   343     4.2   99999.0    0.00 
  87   19:20   0.00   47.1    29    2.3   348     4.2   99999.0    0.00 

Return to Cebollita Spring, Valles Caldera graphs page.


Western Regional Climate Center,wrcc@dri.edu